sensor_id;sensor_type;location;lat;lon;timestamp;P1;durP1;ratioP1;P2;durP2;ratioP2
33840;SDS011;20142;28.494;-16.312;2023-03-24T00:03:48;32.80;;;4.82;;
33840;SDS011;20142;28.494;-16.312;2023-03-24T00:08:51;29.75;;;3.90;;
33840;SDS011;20142;28.494;-16.312;2023-03-24T00:13:53;26.27;;;4.35;;
33840;SDS011;20142;28.494;-16.312;2023-03-24T00:18:58;36.13;;;4.60;;
33840;SDS011;20142;28.494;-16.312;2023-03-24T00:23:59;28.85;;;4.82;;
33840;SDS011;20142;28.494;-16.312;2023-03-24T00:29:02;26.48;;;4.45;;
33840;SDS011;20142;28.494;-16.312;2023-03-24T00:34:07;22.65;;;4.00;;
33840;SDS011;20142;28.494;-16.312;2023-03-24T00:39:10;32.00;;;4.80;;
33840;SDS011;20142;28.494;-16.312;2023-03-24T00:44:12;29.80;;;4.70;;
33840;SDS011;20142;28.494;-16.312;2023-03-24T00:49:18;33.45;;;3.83;;
33840;SDS011;20142;28.494;-16.312;2023-03-24T00:54:25;31.17;;;4.53;;
33840;SDS011;20142;28.494;-16.312;2023-03-24T00:59:30;24.45;;;3.75;;
33840;SDS011;20142;28.494;-16.312;2023-03-24T01:04:32;30.65;;;4.65;;
33840;SDS011;20142;28.494;-16.312;2023-03-24T01:09:36;34.30;;;4.95;;
33840;SDS011;20142;28.494;-16.312;2023-03-24T01:14:37;24.40;;;3.97;;
33840;SDS011;20142;28.494;-16.312;2023-03-24T01:19:39;26.85;;;4.28;;
33840;SDS011;20142;28.494;-16.312;2023-03-24T01:24:42;29.25;;;5.03;;
33840;SDS011;20142;28.494;-16.312;2023-03-24T01:29:44;29.88;;;4.90;;
33840;SDS011;20142;28.494;-16.312;2023-03-24T01:34:46;26.73;;;4.32;;
33840;SDS011;20142;28.494;-16.312;2023-03-24T01:39:48;25.80;;;4.53;;
33840;SDS011;20142;28.494;-16.312;2023-03-24T01:44:53;35.17;;;4.57;;
33840;SDS011;20142;28.494;-16.312;2023-03-24T01:50:00;28.80;;;4.07;;
33840;SDS011;20142;28.494;-16.312;2023-03-24T01:55:06;33.72;;;4.65;;
33840;SDS011;20142;28.494;-16.312;2023-03-24T02:00:16;29.30;;;4.10;;
33840;SDS011;20142;28.494;-16.312;2023-03-24T02:05:22;32.25;;;4.80;;
33840;SDS011;20142;28.494;-16.312;2023-03-24T02:10:29;32.00;;;4.25;;
33840;SDS011;20142;28.494;-16.312;2023-03-24T02:15:35;27.05;;;3.92;;
33840;SDS011;20142;28.494;-16.312;2023-03-24T02:32:00;22.83;;;4.57;;
33840;SDS011;20142;28.494;-16.312;2023-03-24T02:59:09;37.47;;;4.78;;
33840;SDS011;20142;28.494;-16.312;2023-03-24T03:04:46;28.27;;;4.32;;
33840;SDS011;20142;28.494;-16.312;2023-03-24T03:09:56;27.80;;;4.57;;
33840;SDS011;20142;28.494;-16.312;2023-03-24T03:15:36;39.50;;;4.68;;
33840;SDS011;20142;28.494;-16.312;2023-03-24T03:20:46;39.05;;;5.68;;
33840;SDS011;20142;28.494;-16.312;2023-03-24T03:25:54;29.38;;;4.53;;
33840;SDS011;20142;28.494;-16.312;2023-03-24T03:31:05;27.83;;;4.35;;
33840;SDS011;20142;28.494;-16.312;2023-03-24T03:36:19;27.48;;;4.55;;
33840;SDS011;20142;28.494;-16.312;2023-03-24T03:46:57;34.42;;;4.95;;
33840;SDS011;20142;28.494;-16.312;2023-03-24T03:52:00;45.20;;;6.00;;
33840;SDS011;20142;28.494;-16.312;2023-03-24T03:57:02;31.05;;;5.57;;
33840;SDS011;20142;28.494;-16.312;2023-03-24T04:13:35;39.97;;;6.63;;
33840;SDS011;20142;28.494;-16.312;2023-03-24T04:19:14;39.88;;;5.10;;
33840;SDS011;20142;28.494;-16.312;2023-03-24T04:24:36;38.80;;;5.43;;
33840;SDS011;20142;28.494;-16.312;2023-03-24T04:35:32;37.75;;;5.55;;
33840;SDS011;20142;28.494;-16.312;2023-03-24T04:40:39;46.55;;;5.47;;
33840;SDS011;20142;28.494;-16.312;2023-03-24T04:45:42;45.42;;;6.00;;
33840;SDS011;20142;28.494;-16.312;2023-03-24T04:50:56;57.47;;;5.93;;
33840;SDS011;20142;28.494;-16.312;2023-03-24T05:01:25;37.60;;;5.50;;
33840;SDS011;20142;28.494;-16.312;2023-03-24T05:06:30;44.90;;;5.97;;
33840;SDS011;20142;28.494;-16.312;2023-03-24T05:11:32;46.97;;;6.15;;
33840;SDS011;20142;28.494;-16.312;2023-03-24T05:16:34;43.95;;;5.80;;
33840;SDS011;20142;28.494;-16.312;2023-03-24T05:21:36;40.25;;;6.18;;
33840;SDS011;20142;28.494;-16.312;2023-03-24T05:26:38;41.38;;;6.30;;
33840;SDS011;20142;28.494;-16.312;2023-03-24T05:31:40;45.65;;;5.80;;
33840;SDS011;20142;28.494;-16.312;2023-03-24T05:36:41;39.72;;;6.53;;
33840;SDS011;20142;28.494;-16.312;2023-03-24T05:41:43;40.75;;;6.10;;
33840;SDS011;20142;28.494;-16.312;2023-03-24T05:46:45;42.55;;;6.55;;
33840;SDS011;20142;28.494;-16.312;2023-03-24T05:51:47;42.55;;;6.40;;
33840;SDS011;20142;28.494;-16.312;2023-03-24T05:56:48;50.95;;;5.95;;
33840;SDS011;20142;28.494;-16.312;2023-03-24T06:01:51;46.25;;;6.30;;
33840;SDS011;20142;28.494;-16.312;2023-03-24T06:06:56;44.17;;;6.25;;
33840;SDS011;20142;28.494;-16.312;2023-03-24T06:11:59;52.40;;;6.10;;
33840;SDS011;20142;28.494;-16.312;2023-03-24T06:17:05;40.67;;;6.10;;
33840;SDS011;20142;28.494;-16.312;2023-03-24T06:22:08;39.33;;;6.95;;
33840;SDS011;20142;28.494;-16.312;2023-03-24T06:27:10;41.40;;;6.10;;
33840;SDS011;20142;28.494;-16.312;2023-03-24T06:32:13;47.95;;;6.85;;
33840;SDS011;20142;28.494;-16.312;2023-03-24T06:37:21;44.90;;;6.35;;
33840;SDS011;20142;28.494;-16.312;2023-03-24T06:42:23;44.25;;;6.50;;
33840;SDS011;20142;28.494;-16.312;2023-03-24T06:47:25;41.97;;;6.30;;
33840;SDS011;20142;28.494;-16.312;2023-03-24T06:52:26;48.53;;;6.22;;
33840;SDS011;20142;28.494;-16.312;2023-03-24T06:57:28;46.72;;;8.70;;
33840;SDS011;20142;28.494;-16.312;2023-03-24T07:02:30;51.17;;;6.82;;
33840;SDS011;20142;28.494;-16.312;2023-03-24T07:07:35;48.28;;;6.18;;
33840;SDS011;20142;28.494;-16.312;2023-03-24T07:12:37;40.63;;;6.05;;
33840;SDS011;20142;28.494;-16.312;2023-03-24T07:17:41;43.88;;;7.07;;
33840;SDS011;20142;28.494;-16.312;2023-03-24T07:22:43;44.78;;;7.63;;
33840;SDS011;20142;28.494;-16.312;2023-03-24T07:27:45;43.10;;;7.05;;
33840;SDS011;20142;28.494;-16.312;2023-03-24T07:32:47;48.92;;;7.93;;
33840;SDS011;20142;28.494;-16.312;2023-03-24T07:37:48;50.38;;;7.05;;
33840;SDS011;20142;28.494;-16.312;2023-03-24T07:42:50;37.03;;;5.70;;
33840;SDS011;20142;28.494;-16.312;2023-03-24T07:47:52;43.63;;;7.32;;
33840;SDS011;20142;28.494;-16.312;2023-03-24T07:52:56;50.47;;;6.65;;
33840;SDS011;20142;28.494;-16.312;2023-03-24T07:57:58;44.53;;;7.22;;
33840;SDS011;20142;28.494;-16.312;2023-03-24T08:03:00;44.60;;;6.50;;
33840;SDS011;20142;28.494;-16.312;2023-03-24T08:08:03;58.63;;;6.88;;
33840;SDS011;20142;28.494;-16.312;2023-03-24T08:13:06;52.47;;;6.82;;
33840;SDS011;20142;28.494;-16.312;2023-03-24T08:18:08;54.08;;;7.35;;
33840;SDS011;20142;28.494;-16.312;2023-03-24T08:23:11;43.03;;;6.85;;
33840;SDS011;20142;28.494;-16.312;2023-03-24T08:28:12;50.20;;;7.68;;
33840;SDS011;20142;28.494;-16.312;2023-03-24T08:33:14;50.88;;;6.40;;
33840;SDS011;20142;28.494;-16.312;2023-03-24T08:38:16;46.10;;;6.10;;
33840;SDS011;20142;28.494;-16.312;2023-03-24T08:43:18;45.38;;;7.03;;
33840;SDS011;20142;28.494;-16.312;2023-03-24T08:48:23;44.80;;;6.85;;
33840;SDS011;20142;28.494;-16.312;2023-03-24T08:53:25;36.60;;;7.85;;
33840;SDS011;20142;28.494;-16.312;2023-03-24T08:58:27;44.70;;;6.65;;
33840;SDS011;20142;28.494;-16.312;2023-03-24T09:03:29;40.85;;;6.45;;
33840;SDS011;20142;28.494;-16.312;2023-03-24T09:08:31;47.92;;;7.07;;
33840;SDS011;20142;28.494;-16.312;2023-03-24T09:13:33;40.35;;;6.20;;
33840;SDS011;20142;28.494;-16.312;2023-03-24T09:18:35;41.08;;;6.68;;
33840;SDS011;20142;28.494;-16.312;2023-03-24T09:23:37;45.47;;;6.18;;
33840;SDS011;20142;28.494;-16.312;2023-03-24T09:28:39;36.20;;;5.88;;
33840;SDS011;20142;28.494;-16.312;2023-03-24T09:33:40;44.55;;;5.68;;
33840;SDS011;20142;28.494;-16.312;2023-03-24T09:38:42;40.53;;;4.28;;
33840;SDS011;20142;28.494;-16.312;2023-03-24T09:43:46;38.70;;;4.97;;
33840;SDS011;20142;28.494;-16.312;2023-03-24T09:48:56;36.53;;;6.00;;
33840;SDS011;20142;28.494;-16.312;2023-03-24T09:54:09;34.88;;;5.65;;
33840;SDS011;20142;28.494;-16.312;2023-03-24T09:59:48;35.63;;;4.70;;
33840;SDS011;20142;28.494;-16.312;2023-03-24T10:04:50;27.60;;;4.65;;
33840;SDS011;20142;28.494;-16.312;2023-03-24T10:09:54;29.23;;;4.82;;
33840;SDS011;20142;28.494;-16.312;2023-03-24T10:31:19;24.55;;;3.83;;
33840;SDS011;20142;28.494;-16.312;2023-03-24T10:36:29;23.35;;;3.40;;
33840;SDS011;20142;28.494;-16.312;2023-03-24T10:41:31;23.88;;;4.75;;
33840;SDS011;20142;28.494;-16.312;2023-03-24T10:46:34;17.65;;;3.05;;
33840;SDS011;20142;28.494;-16.312;2023-03-24T10:51:47;15.95;;;2.88;;
33840;SDS011;20142;28.494;-16.312;2023-03-24T11:07:20;24.63;;;3.53;;
33840;SDS011;20142;28.494;-16.312;2023-03-24T11:12:26;25.33;;;3.88;;
33840;SDS011;20142;28.494;-16.312;2023-03-24T11:17:33;18.40;;;3.00;;
33840;SDS011;20142;28.494;-16.312;2023-03-24T11:22:35;17.10;;;3.25;;
33840;SDS011;20142;28.494;-16.312;2023-03-24T11:27:42;18.98;;;2.92;;
33840;SDS011;20142;28.494;-16.312;2023-03-24T11:32:45;17.35;;;2.38;;
33840;SDS011;20142;28.494;-16.312;2023-03-24T11:37:48;23.40;;;3.50;;
33840;SDS011;20142;28.494;-16.312;2023-03-24T11:42:52;17.40;;;2.42;;
33840;SDS011;20142;28.494;-16.312;2023-03-24T11:48:10;17.60;;;2.70;;
33840;SDS011;20142;28.494;-16.312;2023-03-24T11:53:27;20.90;;;3.03;;
33840;SDS011;20142;28.494;-16.312;2023-03-24T11:58:51;12.25;;;2.45;;
33840;SDS011;20142;28.494;-16.312;2023-03-24T12:04:24;18.38;;;3.20;;
33840;SDS011;20142;28.494;-16.312;2023-03-24T12:15:34;14.60;;;2.75;;
33840;SDS011;20142;28.494;-16.312;2023-03-24T12:42:18;13.40;;;2.50;;
33840;SDS011;20142;28.494;-16.312;2023-03-24T12:52:44;13.55;;;2.58;;
33840;SDS011;20142;28.494;-16.312;2023-03-24T13:03:42;10.98;;;2.00;;
33840;SDS011;20142;28.494;-16.312;2023-03-24T13:09:12;10.55;;;2.25;;
33840;SDS011;20142;28.494;-16.312;2023-03-24T13:20:21;10.40;;;2.10;;
33840;SDS011;20142;28.494;-16.312;2023-03-24T13:25:44;18.20;;;2.03;;
33840;SDS011;20142;28.494;-16.312;2023-03-24T13:30:53;9.93;;;1.98;;
33840;SDS011;20142;28.494;-16.312;2023-03-24T13:41:34;12.35;;;2.00;;
33840;SDS011;20142;28.494;-16.312;2023-03-24T13:46:39;14.98;;;2.45;;
33840;SDS011;20142;28.494;-16.312;2023-03-24T13:51:44;12.40;;;2.25;;
33840;SDS011;20142;28.494;-16.312;2023-03-24T13:56:48;15.57;;;2.05;;
33840;SDS011;20142;28.494;-16.312;2023-03-24T14:02:15;8.50;;;2.05;;
33840;SDS011;20142;28.494;-16.312;2023-03-24T14:28:51;7.05;;;1.90;;
33840;SDS011;20142;28.494;-16.312;2023-03-24T14:49:51;10.07;;;2.35;;
33840;SDS011;20142;28.494;-16.312;2023-03-24T14:54:56;11.82;;;2.65;;
33840;SDS011;20142;28.494;-16.312;2023-03-24T15:05:35;13.30;;;2.17;;
33840;SDS011;20142;28.494;-16.312;2023-03-24T15:15:50;9.90;;;2.55;;
33840;SDS011;20142;28.494;-16.312;2023-03-24T15:20:52;12.80;;;2.55;;
33840;SDS011;20142;28.494;-16.312;2023-03-24T15:25:54;9.88;;;2.40;;
33840;SDS011;20142;28.494;-16.312;2023-03-24T15:30:56;13.45;;;2.70;;
33840;SDS011;20142;28.494;-16.312;2023-03-24T15:36:02;12.10;;;3.38;;
33840;SDS011;20142;28.494;-16.312;2023-03-24T15:46:19;10.35;;;2.50;;
33840;SDS011;20142;28.494;-16.312;2023-03-24T16:02:16;10.23;;;2.38;;
33840;SDS011;20142;28.494;-16.312;2023-03-24T16:07:38;11.75;;;2.60;;
33840;SDS011;20142;28.494;-16.312;2023-03-24T16:12:41;7.65;;;2.50;;
33840;SDS011;20142;28.494;-16.312;2023-03-24T16:17:43;8.70;;;2.40;;
33840;SDS011;20142;28.494;-16.312;2023-03-24T16:22:46;13.25;;;2.70;;
33840;SDS011;20142;28.494;-16.312;2023-03-24T16:27:47;12.35;;;2.40;;
33840;SDS011;20142;28.494;-16.312;2023-03-24T16:32:50;7.47;;;2.10;;
33840;SDS011;20142;28.494;-16.312;2023-03-24T16:37:51;10.23;;;2.38;;
33840;SDS011;20142;28.494;-16.312;2023-03-24T16:42:53;8.73;;;2.78;;
33840;SDS011;20142;28.494;-16.312;2023-03-24T16:47:55;10.63;;;2.58;;
33840;SDS011;20142;28.494;-16.312;2023-03-24T16:52:57;10.63;;;2.53;;
33840;SDS011;20142;28.494;-16.312;2023-03-24T16:57:59;9.00;;;1.95;;
33840;SDS011;20142;28.494;-16.312;2023-03-24T17:03:01;8.45;;;2.40;;
33840;SDS011;20142;28.494;-16.312;2023-03-24T17:08:04;11.82;;;1.98;;
33840;SDS011;20142;28.494;-16.312;2023-03-24T17:13:07;6.95;;;1.75;;
33840;SDS011;20142;28.494;-16.312;2023-03-24T17:18:10;9.85;;;2.13;;
33840;SDS011;20142;28.494;-16.312;2023-03-24T17:23:13;10.25;;;1.83;;
33840;SDS011;20142;28.494;-16.312;2023-03-24T17:28:18;7.23;;;2.10;;
33840;SDS011;20142;28.494;-16.312;2023-03-24T17:33:19;5.70;;;2.08;;
33840;SDS011;20142;28.494;-16.312;2023-03-24T17:38:21;10.07;;;2.45;;
33840;SDS011;20142;28.494;-16.312;2023-03-24T17:43:23;9.52;;;2.50;;
33840;SDS011;20142;28.494;-16.312;2023-03-24T17:48:25;16.77;;;2.97;;
33840;SDS011;20142;28.494;-16.312;2023-03-24T17:53:27;11.20;;;2.58;;
33840;SDS011;20142;28.494;-16.312;2023-03-24T17:58:29;9.65;;;2.58;;
33840;SDS011;20142;28.494;-16.312;2023-03-24T18:03:32;12.02;;;2.78;;
33840;SDS011;20142;28.494;-16.312;2023-03-24T18:08:36;10.93;;;2.67;;
33840;SDS011;20142;28.494;-16.312;2023-03-24T18:13:40;19.05;;;3.65;;
33840;SDS011;20142;28.494;-16.312;2023-03-24T18:18:43;17.63;;;3.60;;
33840;SDS011;20142;28.494;-16.312;2023-03-24T18:23:45;19.05;;;3.72;;
33840;SDS011;20142;28.494;-16.312;2023-03-24T18:28:47;13.45;;;3.25;;
33840;SDS011;20142;28.494;-16.312;2023-03-24T18:33:49;17.00;;;4.20;;
33840;SDS011;20142;28.494;-16.312;2023-03-24T18:39:00;12.65;;;3.28;;
33840;SDS011;20142;28.494;-16.312;2023-03-24T18:44:15;17.83;;;3.05;;
33840;SDS011;20142;28.494;-16.312;2023-03-24T18:49:17;14.75;;;3.67;;
33840;SDS011;20142;28.494;-16.312;2023-03-24T18:54:18;15.23;;;2.97;;
33840;SDS011;20142;28.494;-16.312;2023-03-24T18:59:21;16.33;;;3.28;;
33840;SDS011;20142;28.494;-16.312;2023-03-24T19:04:24;15.20;;;2.70;;
33840;SDS011;20142;28.494;-16.312;2023-03-24T19:09:26;15.60;;;2.38;;
33840;SDS011;20142;28.494;-16.312;2023-03-24T19:14:28;16.40;;;2.40;;
33840;SDS011;20142;28.494;-16.312;2023-03-24T19:19:31;9.65;;;2.10;;
33840;SDS011;20142;28.494;-16.312;2023-03-24T19:24:32;19.23;;;2.47;;
33840;SDS011;20142;28.494;-16.312;2023-03-24T19:29:34;14.57;;;2.47;;
33840;SDS011;20142;28.494;-16.312;2023-03-24T19:34:36;12.30;;;2.15;;
33840;SDS011;20142;28.494;-16.312;2023-03-24T19:39:38;12.55;;;2.15;;
33840;SDS011;20142;28.494;-16.312;2023-03-24T19:44:39;19.80;;;3.15;;
33840;SDS011;20142;28.494;-16.312;2023-03-24T19:49:41;13.40;;;2.38;;
33840;SDS011;20142;28.494;-16.312;2023-03-24T19:54:43;13.40;;;2.08;;
33840;SDS011;20142;28.494;-16.312;2023-03-24T19:59:45;9.65;;;1.92;;
33840;SDS011;20142;28.494;-16.312;2023-03-24T20:04:46;9.15;;;2.15;;
33840;SDS011;20142;28.494;-16.312;2023-03-24T20:09:48;9.05;;;2.13;;
33840;SDS011;20142;28.494;-16.312;2023-03-24T20:14:50;13.85;;;2.47;;
33840;SDS011;20142;28.494;-16.312;2023-03-24T20:19:52;11.50;;;1.98;;
33840;SDS011;20142;28.494;-16.312;2023-03-24T20:24:55;8.85;;;1.65;;
33840;SDS011;20142;28.494;-16.312;2023-03-24T20:29:56;11.02;;;1.67;;
33840;SDS011;20142;28.494;-16.312;2023-03-24T20:34:58;9.43;;;1.90;;
33840;SDS011;20142;28.494;-16.312;2023-03-24T20:40:01;10.70;;;1.50;;
33840;SDS011;20142;28.494;-16.312;2023-03-24T20:45:05;7.25;;;2.03;;
33840;SDS011;20142;28.494;-16.312;2023-03-24T20:50:08;9.13;;;2.10;;
33840;SDS011;20142;28.494;-16.312;2023-03-24T20:55:10;11.02;;;2.00;;
33840;SDS011;20142;28.494;-16.312;2023-03-24T21:00:13;10.65;;;2.00;;
33840;SDS011;20142;28.494;-16.312;2023-03-24T21:05:15;8.45;;;1.65;;
33840;SDS011;20142;28.494;-16.312;2023-03-24T21:10:17;9.25;;;1.85;;
33840;SDS011;20142;28.494;-16.312;2023-03-24T21:15:18;9.70;;;1.60;;
33840;SDS011;20142;28.494;-16.312;2023-03-24T21:20:20;14.07;;;2.15;;
33840;SDS011;20142;28.494;-16.312;2023-03-24T21:25:27;13.38;;;3.20;;
33840;SDS011;20142;28.494;-16.312;2023-03-24T21:30:31;12.50;;;3.10;;
33840;SDS011;20142;28.494;-16.312;2023-03-24T21:35:33;12.48;;;2.40;;
33840;SDS011;20142;28.494;-16.312;2023-03-24T21:40:34;13.95;;;2.92;;
33840;SDS011;20142;28.494;-16.312;2023-03-24T21:45:36;9.60;;;2.08;;
33840;SDS011;20142;28.494;-16.312;2023-03-24T21:50:38;8.05;;;2.20;;
33840;SDS011;20142;28.494;-16.312;2023-03-24T21:55:52;6.55;;;1.70;;
33840;SDS011;20142;28.494;-16.312;2023-03-24T22:00:56;6.30;;;1.50;;
33840;SDS011;20142;28.494;-16.312;2023-03-24T22:05:58;7.15;;;1.20;;
33840;SDS011;20142;28.494;-16.312;2023-03-24T22:11:00;7.13;;;1.77;;
33840;SDS011;20142;28.494;-16.312;2023-03-24T22:16:04;7.88;;;1.70;;
33840;SDS011;20142;28.494;-16.312;2023-03-24T22:21:07;4.88;;;1.42;;
33840;SDS011;20142;28.494;-16.312;2023-03-24T22:26:15;3.65;;;1.33;;
33840;SDS011;20142;28.494;-16.312;2023-03-24T22:31:17;5.57;;;1.10;;
33840;SDS011;20142;28.494;-16.312;2023-03-24T22:36:22;7.38;;;1.02;;
33840;SDS011;20142;28.494;-16.312;2023-03-24T22:41:24;5.95;;;1.15;;
33840;SDS011;20142;28.494;-16.312;2023-03-24T22:46:25;5.53;;;1.15;;
33840;SDS011;20142;28.494;-16.312;2023-03-24T22:51:27;4.75;;;1.13;;
33840;SDS011;20142;28.494;-16.312;2023-03-24T22:56:30;7.63;;;1.13;;
33840;SDS011;20142;28.494;-16.312;2023-03-24T23:01:31;4.97;;;1.00;;
33840;SDS011;20142;28.494;-16.312;2023-03-24T23:06:33;5.90;;;1.08;;
33840;SDS011;20142;28.494;-16.312;2023-03-24T23:11:35;5.65;;;1.10;;
33840;SDS011;20142;28.494;-16.312;2023-03-24T23:16:37;3.95;;;0.90;;
33840;SDS011;20142;28.494;-16.312;2023-03-24T23:21:39;3.50;;;0.90;;
33840;SDS011;20142;28.494;-16.312;2023-03-24T23:26:41;4.95;;;1.05;;
33840;SDS011;20142;28.494;-16.312;2023-03-24T23:31:43;3.63;;;0.90;;
33840;SDS011;20142;28.494;-16.312;2023-03-24T23:36:45;5.53;;;0.75;;
33840;SDS011;20142;28.494;-16.312;2023-03-24T23:41:50;4.55;;;0.82;;
33840;SDS011;20142;28.494;-16.312;2023-03-24T23:46:51;3.83;;;0.90;;
33840;SDS011;20142;28.494;-16.312;2023-03-24T23:51:53;5.47;;;0.77;;
33840;SDS011;20142;28.494;-16.312;2023-03-24T23:56:55;2.67;;;0.80;;
